Time;durP1;ratioP1;P1;durP2;ratioP2;P2;SDS_P1;SDS_P2;PMS_P1;PMS_P2;Temp;Humidity;BMP_temperature;BMP_pressure;BME280_temperature;BME280_humidity;BME280_pressure;Samples;Min_cycle;Max_cycle;Signal;HPM_P1;HPM_P2
2021/08/22 00:00:08;;;;;;;9.95;8.57;;;;;;;;;;5011064;28;20399;-51
2021/08/22 00:02:37;;;;;;;10.90;8.85;;;;;;;;;;5010973;28;20518;-50
2021/08/22 00:05:05;;;;;;;10.88;8.27;;;;;;;;;;5010339;28;20038;-52
2021/08/22 00:07:31;;;;;;;11.93;9.00;;;;;;;;;;5021552;28;20363;-51
2021/08/22 00:09:58;;;;;;;16.45;8.35;;;;;;;;;;5025712;28;20154;-50
2021/08/22 00:12:25;;;;;;;10.27;8.07;;;;;;;;;;5030630;28;20042;-49
2021/08/22 00:14:52;;;;;;;8.98;7.72;;;;;;;;;;5029845;28;20056;-52
2021/08/22 00:17:20;;;;;;;10.02;7.40;;;;;;;;;;5028223;28;20084;-53
2021/08/22 00:19:47;;;;;;;11.38;7.50;;;;;;;;;;5010650;28;20049;-51
2021/08/22 00:22:14;;;;;;;9.45;7.70;;;;;;;;;;5010746;28;20038;-54
2021/08/22 00:24:40;;;;;;;9.48;8.07;;;;;;;;;;5010082;28;20045;-49
2021/08/22 00:27:07;;;;;;;10.07;7.60;;;;;;;;;;5011038;28;20407;-49
2021/08/22 00:29:34;;;;;;;9.82;7.63;;;;;;;;;;5010582;28;20065;-50
2021/08/22 00:32:01;;;;;;;11.45;7.28;;;;;;;;;;5014428;28;20048;-50
2021/08/22 00:34:28;;;;;;;8.57;7.30;;;;;;;;;;5013725;28;20050;-54
2021/08/22 00:36:55;;;;;;;9.50;7.53;;;;;;;;;;5013585;28;20054;-52
2021/08/22 00:39:23;;;;;;;7.95;6.90;;;;;;;;;;5014154;28;20038;-51
2021/08/22 00:41:50;;;;;;;11.15;7.80;;;;;;;;;;5014428;28;20048;-51
2021/08/22 00:44:17;;;;;;;11.10;7.20;;;;;;;;;;5013825;28;20242;-52
2021/08/22 00:46:45;;;;;;;10.15;7.05;;;;;;;;;;5014253;28;20038;-52
2021/08/22 00:49:12;;;;;;;7.53;6.15;;;;;;;;;;5012984;28;20042;-54
2021/08/22 00:51:40;;;;;;;7.60;6.80;;;;;;;;;;5014182;28;20042;-54
2021/08/22 00:54:07;;;;;;;10.60;6.65;;;;;;;;;;5013415;28;20053;-50
2021/08/22 00:56:34;;;;;;;9.20;7.28;;;;;;;;;;5014160;28;20041;-52
2021/08/22 00:59:03;;;;;;;8.77;6.95;;;;;;;;;;5013999;28;20068;-54
2021/08/22 01:01:30;;;;;;;10.85;7.20;;;;;;;;;;5013948;28;20038;-49
2021/08/22 01:04:06;;;;;;;10.20;6.75;;;;;;;;;;5013655;28;20112;-50
2021/08/22 01:06:36;;;;;;;9.60;6.78;;;;;;;;;;5016618;28;20040;-50
2021/08/22 01:09:06;;;;;;;9.45;6.25;;;;;;;;;;5028865;28;20384;-50
2021/08/22 01:11:35;;;;;;;7.68;6.40;;;;;;;;;;5033735;28;20432;-51
2021/08/22 01:14:03;;;;;;;8.27;6.45;;;;;;;;;;5032835;28;20072;-54
2021/08/22 01:16:37;;;;;;;8.65;6.32;;;;;;;;;;5033754;28;20076;-54
2021/08/22 01:19:07;;;;;;;8.18;6.60;;;;;;;;;;5018396;28;20041;-52
2021/08/22 01:21:34;;;;;;;8.95;6.20;;;;;;;;;;5013487;28;20044;-51
2021/08/22 01:24:02;;;;;;;8.75;6.40;;;;;;;;;;5013065;28;20490;-52
2021/08/22 01:26:33;;;;;;;9.75;6.63;;;;;;;;;;5013620;28;20042;-52
2021/08/22 01:29:00;;;;;;;7.78;6.80;;;;;;;;;;5013791;28;20034;-51
2021/08/22 01:31:32;;;;;;;8.13;6.15;;;;;;;;;;5013517;28;20046;-51
2021/08/22 01:34:00;;;;;;;8.45;6.40;;;;;;;;;;5013047;28;20049;-54
2021/08/22 01:36:27;;;;;;;7.78;6.20;;;;;;;;;;5020855;28;20049;-50
2021/08/22 01:38:54;;;;;;;8.20;6.50;;;;;;;;;;5013251;28;20042;-53
2021/08/22 01:41:23;;;;;;;8.13;6.40;;;;;;;;;;5012791;28;20046;-53
2021/08/22 01:43:51;;;;;;;9.80;6.28;;;;;;;;;;5013159;28;20048;-50
2021/08/22 01:46:20;;;;;;;7.15;5.50;;;;;;;;;;5011273;28;20034;-50
2021/08/22 01:48:47;;;;;;;8.43;6.50;;;;;;;;;;5012921;28;20054;-51
2021/08/22 01:51:14;;;;;;;7.63;6.13;;;;;;;;;;5013196;28;20442;-51
2021/08/22 01:53:41;;;;;;;7.22;6.20;;;;;;;;;;5013229;28;20048;-53
2021/08/22 01:56:07;;;;;;;9.18;5.80;;;;;;;;;;5012242;28;20041;-53
2021/08/22 01:58:34;;;;;;;7.78;6.22;;;;;;;;;;5012892;28;20181;-50
2021/08/22 02:01:01;;;;;;;7.28;5.72;;;;;;;;;;5012840;28;20034;-53
2021/08/22 02:03:37;;;;;;;7.78;5.68;;;;;;;;;;5012942;28;20038;-50
2021/08/22 02:06:15;;;;;;;6.50;5.35;;;;;;;;;;5012127;28;20228;-50
2021/08/22 02:08:42;;;;;;;8.70;5.57;;;;;;;;;;5032041;28;20073;-51
2021/08/22 02:11:21;;;;;;;7.90;5.97;;;;;;;;;;5032491;28;20037;-51
2021/08/22 02:13:48;;;;;;;7.97;5.68;;;;;;;;;;5032451;28;20049;-54
2021/08/22 02:16:18;;;;;;;8.27;5.47;;;;;;;;;;5031841;28;20075;-49
2021/08/22 02:18:49;;;;;;;6.80;5.70;;;;;;;;;;5018939;28;20046;-52
2021/08/22 02:21:16;;;;;;;7.53;5.65;;;;;;;;;;5012332;28;20128;-51
2021/08/22 02:23:43;;;;;;;7.43;5.80;;;;;;;;;;5012560;28;20046;-54
2021/08/22 02:26:10;;;;;;;6.78;5.65;;;;;;;;;;5011707;28;20517;-52
2021/08/22 02:28:36;;;;;;;8.65;6.20;;;;;;;;;;5012315;28;20045;-54
2021/08/22 02:31:03;;;;;;;9.25;5.80;;;;;;;;;;5012320;28;20092;-51
2021/08/22 02:33:30;;;;;;;10.13;5.88;;;;;;;;;;5012269;28;20054;-50
2021/08/22 02:35:57;;;;;;;5.90;5.30;;;;;;;;;;5011344;28;20046;-53
2021/08/22 02:38:23;;;;;;;7.18;5.80;;;;;;;;;;5012317;28;20638;-53
2021/08/22 02:40:50;;;;;;;9.05;5.32;;;;;;;;;;5012266;28;20085;-50
2021/08/22 02:43:17;;;;;;;8.50;5.90;;;;;;;;;;5012195;28;20041;-51
2021/08/22 02:45:43;;;;;;;7.88;5.88;;;;;;;;;;5011569;28;20120;-53
2021/08/22 02:48:10;;;;;;;9.10;5.75;;;;;;;;;;5012214;28;20046;-52
2021/08/22 02:50:37;;;;;;;7.97;6.10;;;;;;;;;;5012047;28;20065;-52
2021/08/22 02:53:05;;;;;;;7.95;6.10;;;;;;;;;;5011403;28;20046;-52
2021/08/22 02:55:32;;;;;;;10.20;5.80;;;;;;;;;;5010310;28;20088;-57
2021/08/22 02:57:58;;;;;;;8.88;6.25;;;;;;;;;;5012422;28;20072;-52
2021/08/22 03:00:25;;;;;;;7.15;5.70;;;;;;;;;;5011989;28;20111;-52
2021/08/22 03:02:52;;;;;;;7.63;5.85;;;;;;;;;;5011882;28;20038;-52
2021/08/22 03:05:19;;;;;;;8.57;5.80;;;;;;;;;;5010807;28;20118;-52
2021/08/22 03:07:46;;;;;;;8.15;5.90;;;;;;;;;;5024401;28;20523;-52
2021/08/22 03:10:13;;;;;;;10.32;6.38;;;;;;;;;;5026675;28;20045;-49
2021/08/22 03:12:39;;;;;;;7.38;6.10;;;;;;;;;;5031660;28;20069;-51
2021/08/22 03:15:08;;;;;;;9.30;5.82;;;;;;;;;;5030818;28;20050;-53
2021/08/22 03:17:35;;;;;;;8.43;6.65;;;;;;;;;;5020610;28;20048;-51
2021/08/22 03:20:04;;;;;;;7.35;5.40;;;;;;;;;;5011809;28;20073;-51
2021/08/22 03:22:31;;;;;;;8.20;5.95;;;;;;;;;;5011736;28;20045;-53
2021/08/22 03:24:58;;;;;;;8.52;5.53;;;;;;;;;;5010679;28;20053;-51
2021/08/22 03:27:25;;;;;;;8.02;6.28;;;;;;;;;;5011402;28;20045;-49
2021/08/22 03:29:52;;;;;;;6.60;5.68;;;;;;;;;;5011474;28;20072;-50
2021/08/22 03:32:19;;;;;;;6.72;5.65;;;;;;;;;;5011391;28;20042;-52
2021/08/22 03:34:46;;;;;;;7.50;5.50;;;;;;;;;;5010544;28;20038;-49
2021/08/22 03:37:12;;;;;;;8.38;5.88;;;;;;;;;;5011415;28;20038;-50
2021/08/22 03:39:39;;;;;;;9.10;5.95;;;;;;;;;;5011110;28;20046;-53
2021/08/22 03:42:06;;;;;;;7.45;5.97;;;;;;;;;;5011384;28;20093;-52
2021/08/22 03:44:32;;;;;;;7.80;5.68;;;;;;;;;;5010576;28;20407;-51
2021/08/22 03:46:59;;;;;;;10.85;5.70;;;;;;;;;;5011026;28;20044;-54
2021/08/22 03:49:26;;;;;;;8.55;6.30;;;;;;;;;;5009843;28;20125;-51
2021/08/22 03:51:53;;;;;;;8.05;6.45;;;;;;;;;;5011434;28;20050;-51
2021/08/22 03:54:20;;;;;;;10.27;6.70;;;;;;;;;;5010424;28;20045;-51
2021/08/22 03:56:46;;;;;;;14.10;6.05;;;;;;;;;;5026083;28;20513;-52
2021/08/22 03:59:13;;;;;;;9.63;6.07;;;;;;;;;;5011012;28;20044;-52
2021/08/22 04:01:40;;;;;;;8.23;6.43;;;;;;;;;;5011186;28;20046;-53
2021/08/22 04:04:18;;;;;;;8.45;6.65;;;;;;;;;;5019756;28;20116;-54
2021/08/22 04:06:50;;;;;;;8.02;6.57;;;;;;;;;;5000952;28;20076;-51
2021/08/22 04:09:17;;;;;;;9.13;7.00;;;;;;;;;;5029937;28;20048;-55
2021/08/22 04:11:46;;;;;;;8.57;7.10;;;;;;;;;;5033609;28;20046;-55
2021/08/22 04:14:13;;;;;;;9.18;7.03;;;;;;;;;;5034328;28;20053;-53
2021/08/22 04:16:39;;;;;;;8.73;7.13;;;;;;;;;;5029604;28;20045;-52
2021/08/22 04:19:06;;;;;;;9.43;6.65;;;;;;;;;;5014790;28;20042;-51
2021/08/22 04:21:33;;;;;;;10.60;7.28;;;;;;;;;;5014788;28;20049;-56
2021/08/22 04:24:00;;;;;;;8.82;7.10;;;;;;;;;;5014058;28;20045;-58
2021/08/22 04:26:27;;;;;;;10.60;7.00;;;;;;;;;;5014614;28;20575;-52
2021/08/22 04:28:54;;;;;;;10.65;7.95;;;;;;;;;;5014507;28;20038;-51
2021/08/22 04:31:21;;;;;;;13.13;7.88;;;;;;;;;;5014654;28;20049;-54
2021/08/22 04:33:48;;;;;;;10.57;7.57;;;;;;;;;;5014376;28;20134;-51
2021/08/22 04:36:14;;;;;;;11.27;7.70;;;;;;;;;;5014003;28;20052;-52
2021/08/22 04:38:41;;;;;;;11.95;9.38;;;;;;;;;;5014564;28;20079;-54
2021/08/22 04:41:08;;;;;;;12.15;8.55;;;;;;;;;;5014390;28;20041;-53
2021/08/22 04:43:35;;;;;;;11.80;8.57;;;;;;;;;;5014484;28;20034;-55
2021/08/22 04:46:01;;;;;;;12.95;8.40;;;;;;;;;;5013848;28;20054;-54
2021/08/22 04:48:28;;;;;;;9.70;7.30;;;;;;;;;;5014007;28;20072;-55
2021/08/22 04:50:55;;;;;;;11.75;8.05;;;;;;;;;;5014221;28;20045;-52
2021/08/22 04:53:22;;;;;;;10.15;7.97;;;;;;;;;;5014253;28;20042;-50
2021/08/22 04:55:48;;;;;;;9.07;7.45;;;;;;;;;;5013232;28;20521;-55
2021/08/22 04:58:15;;;;;;;11.05;8.20;;;;;;;;;;5013966;28;20068;-54
2021/08/22 05:00:42;;;;;;;11.77;7.10;;;;;;;;;;5013950;28;20053;-55
2021/08/22 05:03:09;;;;;;;10.82;6.68;;;;;;;;;;5014008;28;20124;-54
2021/08/22 05:05:36;;;;;;;8.40;6.88;;;;;;;;;;5013013;28;20125;-51
2021/08/22 05:08:03;;;;;;;9.15;7.40;;;;;;;;;;5027798;28;20052;-52
2021/08/22 05:10:30;;;;;;;9.20;7.10;;;;;;;;;;5030071;28;20052;-53
2021/08/22 05:12:57;;;;;;;10.65;6.80;;;;;;;;;;5033581;28;20791;-55
2021/08/22 05:15:24;;;;;;;9.38;6.80;;;;;;;;;;5032351;28;20033;-52
2021/08/22 05:17:50;;;;;;;9.45;6.72;;;;;;;;;;5037115;28;20067;-53
2021/08/22 05:20:17;;;;;;;11.40;7.13;;;;;;;;;;5053193;28;20041;-53
2021/08/22 05:22:44;;;;;;;10.75;7.35;;;;;;;;;;5053315;28;20094;-54
2021/08/22 05:25:11;;;;;;;7.00;5.97;;;;;;;;;;5043795;28;20050;-50
2021/08/22 05:27:37;;;;;;;9.88;6.38;;;;;;;;;;5013639;28;20049;-52
2021/08/22 05:30:04;;;;;;;10.52;6.90;;;;;;;;;;5013309;28;20108;-50
2021/08/22 05:32:31;;;;;;;9.65;7.57;;;;;;;;;;5013329;28;20053;-54
2021/08/22 05:34:58;;;;;;;8.52;6.63;;;;;;;;;;5011237;28;20042;-54
2021/08/22 05:37:25;;;;;;;8.13;6.28;;;;;;;;;;5013613;28;20422;-53
2021/08/22 05:39:51;;;;;;;9.50;5.85;;;;;;;;;;5012987;28;20132;-55
2021/08/22 05:42:18;;;;;;;8.57;5.68;;;;;;;;;;5013199;28;20072;-54
2021/08/22 05:44:45;;;;;;;6.95;5.53;;;;;;;;;;5012441;28;20152;-53
2021/08/22 05:47:11;;;;;;;7.75;5.30;;;;;;;;;;5013086;28;20044;-52
2021/08/22 05:49:39;;;;;;;7.28;5.70;;;;;;;;;;5033165;23;20042;-59
2021/08/22 05:52:07;;;;;;;6.50;5.20;;;;;;;;;;5013352;28;20483;-59
2021/08/22 05:54:33;;;;;;;7.20;4.80;;;;;;;;;;5008633;28;20049;-59
2021/08/22 05:57:00;;;;;;;6.78;4.70;;;;;;;;;;4993989;28;20045;-59
2021/08/22 05:59:27;;;;;;;7.70;4.90;;;;;;;;;;4993820;28;20053;-61
2021/08/22 06:01:53;;;;;;;10.20;5.03;;;;;;;;;;4996259;28;20038;-57
2021/08/22 06:04:21;;;;;;;6.97;4.72;;;;;;;;;;5009568;28;20042;-59
2021/08/22 06:06:47;;;;;;;7.13;4.40;;;;;;;;;;4998399;28;20120;-59
2021/08/22 06:09:14;;;;;;;6.20;4.82;;;;;;;;;;5008622;28;20030;-58
2021/08/22 06:11:41;;;;;;;5.70;4.05;;;;;;;;;;5013326;28;20045;-58
2021/08/22 06:14:08;;;;;;;5.57;4.35;;;;;;;;;;5012299;28;20042;-58
2021/08/22 06:16:34;;;;;;;8.05;4.32;;;;;;;;;;5006197;28;20046;-59
2021/08/22 06:19:01;;;;;;;5.78;4.28;;;;;;;;;;4993317;28;20056;-59
2021/08/22 06:21:28;;;;;;;6.82;4.60;;;;;;;;;;4993629;28;20543;-58
2021/08/22 06:23:57;;;;;;;6.50;5.32;;;;;;;;;;4992147;28;20038;-59
2021/08/22 06:26:25;;;;;;;7.18;4.43;;;;;;;;;;4992862;28;20203;-56
2021/08/22 06:28:52;;;;;;;6.57;4.50;;;;;;;;;;4993442;28;20046;-58
2021/08/22 06:31:19;;;;;;;6.63;4.97;;;;;;;;;;4993178;28;20381;-58
2021/08/22 06:33:45;;;;;;;6.82;3.95;;;;;;;;;;4993014;28;20045;-59
2021/08/22 06:36:12;;;;;;;6.30;4.20;;;;;;;;;;4992593;28;20050;-59
2021/08/22 06:38:39;;;;;;;6.80;3.90;;;;;;;;;;4991925;28;20085;-59
2021/08/22 06:41:06;;;;;;;4.97;3.35;;;;;;;;;;4992948;28;20435;-58
2021/08/22 06:43:33;;;;;;;6.03;3.33;;;;;;;;;;4993002;28;20046;-60
2021/08/22 06:46:00;;;;;;;5.65;3.63;;;;;;;;;;4992201;28;20097;-59
2021/08/22 06:48:27;;;;;;;7.40;3.85;;;;;;;;;;4993062;28;20042;-59
2021/08/22 06:50:54;;;;;;;5.63;3.60;;;;;;;;;;4991645;28;20043;-59
2021/08/22 06:53:20;;;;;;;4.78;2.85;;;;;;;;;;4991584;28;20064;-59
2021/08/22 06:55:47;;;;;;;5.45;3.55;;;;;;;;;;4992059;28;20043;-59
2021/08/22 06:58:14;;;;;;;5.25;3.70;;;;;;;;;;5010611;28;20033;-59
2021/08/22 07:00:41;;;;;;;6.15;4.07;;;;;;;;;;5032063;28;20049;-59
2021/08/22 07:03:08;;;;;;;5.22;3.40;;;;;;;;;;5027246;28;20696;-59
2021/08/22 07:05:35;;;;;;;5.13;3.60;;;;;;;;;;5009114;28;20458;-59
2021/08/22 07:08:02;;;;;;;4.80;3.33;;;;;;;;;;5009478;28;20221;-58
2021/08/22 07:10:28;;;;;;;4.78;3.10;;;;;;;;;;5006260;28;20038;-59
2021/08/22 07:12:55;;;;;;;6.35;3.53;;;;;;;;;;5011032;28;20137;-60
2021/08/22 07:15:22;;;;;;;5.30;3.22;;;;;;;;;;5011234;28;20605;-59
2021/08/22 07:17:49;;;;;;;5.60;3.47;;;;;;;;;;5012183;28;20053;-59
2021/08/22 07:20:16;;;;;;;4.63;3.22;;;;;;;;;;4992297;28;20512;-58
2021/08/22 07:22:42;;;;;;;4.47;3.33;;;;;;;;;;4992240;28;20074;-59
2021/08/22 07:25:09;;;;;;;6.10;3.50;;;;;;;;;;4991705;28;20038;-59
2021/08/22 07:27:36;;;;;;;5.60;3.30;;;;;;;;;;4990913;28;20049;-59
2021/08/22 07:30:03;;;;;;;5.40;3.00;;;;;;;;;;4990792;28;20054;-59
2021/08/22 07:32:30;;;;;;;4.82;3.22;;;;;;;;;;4992210;28;20042;-59
2021/08/22 07:34:57;;;;;;;4.20;2.90;;;;;;;;;;4990192;28;20425;-55
2021/08/22 07:37:24;;;;;;;5.05;3.28;;;;;;;;;;4991964;28;20050;-56
2021/08/22 07:39:51;;;;;;;4.63;2.88;;;;;;;;;;4991633;28;20084;-58
2021/08/22 07:42:18;;;;;;;5.15;3.50;;;;;;;;;;4994249;28;20038;-56
2021/08/22 07:44:45;;;;;;;4.82;2.97;;;;;;;;;;5010897;28;20153;-56
2021/08/22 07:47:11;;;;;;;4.30;3.15;;;;;;;;;;5007311;28;20038;-58
2021/08/22 07:49:38;;;;;;;5.10;2.95;;;;;;;;;;5012675;28;20048;-55
2021/08/22 07:52:05;;;;;;;3.88;2.83;;;;;;;;;;5023201;28;20038;-56
2021/08/22 07:54:32;;;;;;;6.03;2.63;;;;;;;;;;5008767;28;20149;-56
2021/08/22 07:56:59;;;;;;;6.97;3.40;;;;;;;;;;5006617;28;20040;-59
2021/08/22 07:59:28;;;;;;;4.15;2.80;;;;;;;;;;5011871;28;20050;-59
2021/08/22 08:01:57;;;;;;;5.03;2.80;;;;;;;;;;5011464;28;20042;-59
2021/08/22 08:04:24;;;;;;;4.00;2.67;;;;;;;;;;5008806;28;20176;-59
2021/08/22 08:06:51;;;;;;;4.07;2.53;;;;;;;;;;5008641;28;20073;-59
2021/08/22 08:09:17;;;;;;;4.25;2.50;;;;;;;;;;5006558;28;20562;-59
2021/08/22 08:11:44;;;;;;;4.13;2.60;;;;;;;;;;4999344;28;20048;-59
2021/08/22 08:14:11;;;;;;;6.43;2.75;;;;;;;;;;4998283;28;20499;-59
2021/08/22 08:16:38;;;;;;;3.95;2.58;;;;;;;;;;5006857;28;20116;-58
2021/08/22 08:19:04;;;;;;;4.07;2.30;;;;;;;;;;5001004;28;20507;-59
2021/08/22 08:21:31;;;;;;;5.43;3.28;;;;;;;;;;5011208;28;20042;-60
2021/08/22 08:23:58;;;;;;;3.92;2.40;;;;;;;;;;5010906;28;20050;-58
2021/08/22 08:26:25;;;;;;;4.30;2.67;;;;;;;;;;5007712;28;20034;-58
2021/08/22 08:28:52;;;;;;;4.05;2.75;;;;;;;;;;5002874;28;20081;-61
2021/08/22 08:31:18;;;;;;;3.72;2.63;;;;;;;;;;5006929;28;20052;-60
2021/08/22 08:33:49;;;;;;;3.97;2.60;;;;;;;;;;5010512;28;20487;-59
2021/08/22 08:36:15;;;;;;;4.85;2.45;;;;;;;;;;5008391;28;20269;-60
2021/08/22 08:38:42;;;;;;;4.97;2.85;;;;;;;;;;5010687;28;20041;-59
2021/08/22 08:41:14;;;;;;;3.80;2.65;;;;;;;;;;5007521;28;20042;-60
2021/08/22 08:43:44;;;;;;;5.38;2.70;;;;;;;;;;5010636;28;20034;-59
2021/08/22 08:46:17;;;;;;;4.38;2.80;;;;;;;;;;5008915;28;20053;-58
2021/08/22 08:48:43;;;;;;;;;;;;;;;;;;5011810;28;20427;-59
2021/08/22 08:51:13;;;;;;;4.88;2.42;;;;;;;;;;5011914;28;19928;-59
2021/08/22 08:54:06;;;;;;;5.10;2.80;;;;;;;;;;5014784;28;20145;-60
2021/08/22 08:56:34;;;;;;;3.97;2.90;;;;;;;;;;5010453;28;20069;-60
2021/08/22 08:59:01;;;;;;;5.20;2.50;;;;;;;;;;5015232;28;20478;-60
2021/08/22 09:01:28;;;;;;;4.95;3.20;;;;;;;;;;5014150;28;20038;-59
2021/08/22 09:04:12;;;;;;;5.75;2.53;;;;;;;;;;5010412;28;20042;-61
2021/08/22 09:06:51;;;;;;;3.95;2.40;;;;;;;;;;5029705;28;20080;-59
2021/08/22 09:09:36;;;;;;;3.30;2.40;;;;;;;;;;5013188;28;20404;-60
2021/08/22 09:12:21;;;;;;;4.07;2.60;;;;;;;;;;5024560;28;20149;-59
2021/08/22 09:15:03;;;;;;;4.47;2.75;;;;;;;;;;5011980;28;20097;-59
2021/08/22 09:17:58;;;;;;;3.80;2.40;;;;;;;;;;5013399;28;20133;-58
2021/08/22 09:20:31;;;;;;;4.05;2.92;;;;;;;;;;5006580;28;20052;-59
2021/08/22 09:23:11;;;;;;;3.75;2.83;;;;;;;;;;5022646;28;20450;-59
2021/08/22 09:25:56;;;;;;;3.95;2.70;;;;;;;;;;5010873;28;20444;-61
2021/08/22 09:28:32;;;;;;;4.00;2.75;;;;;;;;;;5012885;28;20466;-61
2021/08/22 09:31:17;;;;;;;4.35;3.00;;;;;;;;;;5023398;28;20388;-59
2021/08/22 09:33:47;;;;;;;5.50;2.92;;;;;;;;;;5010399;28;20056;-60
2021/08/22 09:36:23;;;;;;;3.60;2.50;;;;;;;;;;5009140;28;20045;-59
2021/08/22 09:39:08;;;;;;;5.30;3.40;;;;;;;;;;5008787;28;20038;-60
2021/08/22 09:41:41;;;;;;;5.40;2.80;;;;;;;;;;5010635;28;20137;-59
2021/08/22 09:44:26;;;;;;;5.13;2.92;;;;;;;;;;4999409;28;20496;-61
2021/08/22 09:47:12;;;;;;;3.78;2.60;;;;;;;;;;5004365;28;20046;-58
2021/08/22 09:49:58;;;;;;;4.05;2.67;;;;;;;;;;5012989;28;20479;-60
2021/08/22 09:52:44;;;;;;;4.18;3.03;;;;;;;;;;5012669;28;20041;-59
2021/08/22 09:55:30;;;;;;;4.50;3.30;;;;;;;;;;5003773;28;20483;-59
2021/08/22 09:58:05;;;;;;;4.40;3.08;;;;;;;;;;5014346;28;20046;-60
2021/08/22 10:00:51;;;;;;;3.97;2.88;;;;;;;;;;5012173;28;20046;-58
2021/08/22 10:03:30;;;;;;;5.35;2.92;;;;;;;;;;5013183;28;20506;-55
2021/08/22 10:06:06;;;;;;;4.78;2.63;;;;;;;;;;5016127;28;20081;-56
2021/08/22 10:08:59;;;;;;;3.92;2.60;;;;;;;;;;5001182;28;20447;-58
2021/08/22 10:11:26;;;;;;;;;;;;;;;;;;4994441;28;20046;-58
2021/08/22 10:13:52;;;;;;;3.45;2.63;;;;;;;;;;5012099;28;19921;-57
2021/08/22 10:16:33;;;;;;;6.25;2.80;;;;;;;;;;5017581;28;20101;-59
2021/08/22 10:19:03;;;;;;;4.07;2.78;;;;;;;;;;5023772;28;20507;-59
2021/08/22 10:21:30;;;;;;;3.58;2.50;;;;;;;;;;5027559;28;20056;-58
2021/08/22 10:23:59;;;;;;;3.85;2.70;;;;;;;;;;5029545;28;20136;-59
2021/08/22 10:26:44;;;;;;;3.63;2.67;;;;;;;;;;5019539;28;20136;-57
2021/08/22 10:29:12;;;;;;;4.32;2.55;;;;;;;;;;5019474;28;20041;-58
2021/08/22 10:31:48;;;;;;;4.00;2.97;;;;;;;;;;5018956;28;20124;-58
2021/08/22 10:34:21;;;;;;;4.13;3.03;;;;;;;;;;5019047;28;20112;-58
2021/08/22 10:36:49;;;;;;;5.50;2.85;;;;;;;;;;5023898;28;20041;-58
2021/08/22 10:39:30;;;;;;;3.45;2.65;;;;;;;;;;5008181;28;20440;-54
2021/08/22 10:41:57;;;;;;;4.00;2.75;;;;;;;;;;5027545;28;20044;-59
2021/08/22 10:44:33;;;;;;;4.07;2.83;;;;;;;;;;5020425;28;20042;-59
2021/08/22 10:47:03;;;;;;;4.18;2.90;;;;;;;;;;5010089;28;20118;-59
2021/08/22 10:49:49;;;;;;;4.82;3.08;;;;;;;;;;5027917;28;20137;-60
2021/08/22 10:52:26;;;;;;;4.68;3.22;;;;;;;;;;5022501;28;20502;-59
2021/08/22 10:55:11;;;;;;;3.92;2.90;;;;;;;;;;5016478;28;20125;-58
2021/08/22 10:57:42;;;;;;;4.72;3.08;;;;;;;;;;5006131;28;20046;-58
2021/08/22 11:00:25;;;;;;;4.22;3.17;;;;;;;;;;5022180;28;20045;-58
2021/08/22 11:02:53;;;;;;;4.47;3.10;;;;;;;;;;5028286;28;20049;-59
2021/08/22 11:05:25;;;;;;;3.95;2.78;;;;;;;;;;4995025;28;20041;-55
2021/08/22 11:07:54;;;;;;;4.43;3.15;;;;;;;;;;4992841;28;20057;-58
2021/08/22 11:10:25;;;;;;;4.65;2.95;;;;;;;;;;4996402;28;20065;-57
2021/08/22 11:12:52;;;;;;;4.35;2.85;;;;;;;;;;5015507;28;20048;-59
2021/08/22 11:15:22;;;;;;;6.82;3.35;;;;;;;;;;5031912;28;20074;-58
2021/08/22 11:17:50;;;;;;;4.72;3.00;;;;;;;;;;5023293;28;20046;-59
2021/08/22 11:20:18;;;;;;;4.95;2.72;;;;;;;;;;5016257;28;20069;-51
2021/08/22 11:22:47;;;;;;;4.53;3.10;;;;;;;;;;5012123;28;20049;-59
2021/08/22 11:25:14;;;;;;;3.72;2.80;;;;;;;;;;5012120;28;20061;-60
2021/08/22 11:27:41;;;;;;;4.53;3.15;;;;;;;;;;5010219;28;20038;-59
2021/08/22 11:30:12;;;;;;;6.68;3.42;;;;;;;;;;5011876;28;20038;-61
2021/08/22 11:32:49;;;;;;;4.50;2.67;;;;;;;;;;5012807;28;20045;-59
2021/08/22 11:35:19;;;;;;;5.57;3.17;;;;;;;;;;5011835;28;20049;-60
2021/08/22 11:37:45;;;;;;;4.13;3.05;;;;;;;;;;5008122;28;20050;-59
2021/08/22 11:40:16;;;;;;;4.55;2.92;;;;;;;;;;4995719;28;20129;-58
2021/08/22 11:42:50;;;;;;;3.97;3.05;;;;;;;;;;5012569;28;20049;-60
2021/08/22 11:45:21;;;;;;;4.30;2.90;;;;;;;;;;5012045;28;20042;-60
2021/08/22 11:47:48;;;;;;;4.22;2.90;;;;;;;;;;4999813;28;20070;-58
2021/08/22 11:50:16;;;;;;;3.30;2.50;;;;;;;;;;5006125;23;20356;-51
2021/08/22 11:52:47;;;;;;;4.93;3.05;;;;;;;;;;5005347;28;20042;-52
2021/08/22 11:55:14;;;;;;;4.88;3.03;;;;;;;;;;5013610;28;20046;-51
2021/08/22 11:57:41;;;;;;;4.25;3.00;;;;;;;;;;4999577;28;20065;-54
2021/08/22 12:00:09;;;;;;;4.32;3.10;;;;;;;;;;5007518;28;20153;-53
2021/08/22 12:02:52;;;;;;;3.88;2.67;;;;;;;;;;5009757;28;20041;-54
2021/08/22 12:05:30;;;;;;;3.90;2.78;;;;;;;;;;5002515;28;20049;-56
2021/08/22 12:08:04;;;;;;;5.13;3.17;;;;;;;;;;5011079;28;20505;-50
2021/08/22 12:10:31;;;;;;;7.65;3.00;;;;;;;;;;5019811;28;20037;-51
2021/08/22 12:12:59;;;;;;;4.78;2.85;;;;;;;;;;5015178;28;20456;-54
2021/08/22 12:15:31;;;;;;;3.90;2.53;;;;;;;;;;4998229;28;20046;-52
2021/08/22 12:18:16;;;;;;;4.80;3.17;;;;;;;;;;5015699;28;20499;-48
2021/08/22 12:20:45;;;;;;;5.05;3.13;;;;;;;;;;5024881;28;20493;-52
2021/08/22 12:23:12;;;;;;;4.22;3.15;;;;;;;;;;5011348;28;20046;-51
2021/08/22 12:25:42;;;;;;;5.32;2.92;;;;;;;;;;5013147;28;20111;-50
2021/08/22 12:28:24;;;;;;;4.72;3.20;;;;;;;;;;5009529;28;20042;-50
2021/08/22 12:31:03;;;;;;;5.18;2.85;;;;;;;;;;5012807;28;20100;-50
2021/08/22 12:33:31;;;;;;;4.00;2.95;;;;;;;;;;5024654;28;20038;-55
2021/08/22 12:36:03;;;;;;;4.43;2.88;;;;;;;;;;5010816;28;20141;-52
2021/08/22 12:38:37;;;;;;;4.32;2.85;;;;;;;;;;5010899;28;20205;-50
2021/08/22 12:41:22;;;;;;;4.97;3.13;;;;;;;;;;4995284;28;20050;-50
2021/08/22 12:43:49;;;;;;;5.03;3.40;;;;;;;;;;4995492;28;20053;-51
2021/08/22 12:46:16;;;;;;;4.57;3.17;;;;;;;;;;4995022;28;20062;-50
2021/08/22 12:48:44;;;;;;;4.13;2.78;;;;;;;;;;4995087;28;20169;-52
2021/08/22 12:51:11;;;;;;;6.22;3.50;;;;;;;;;;4994920;28;20047;-51
2021/08/22 12:53:38;;;;;;;4.97;3.30;;;;;;;;;;4995205;28;20558;-49
2021/08/22 12:56:05;;;;;;;4.53;2.90;;;;;;;;;;4994639;28;20077;-52
2021/08/22 12:58:31;;;;;;;5.60;3.30;;;;;;;;;;4995158;28;20056;-54
2021/08/22 13:01:01;;;;;;;4.70;2.63;;;;;;;;;;4994767;28;20463;-51
2021/08/22 13:03:28;;;;;;;4.97;3.03;;;;;;;;;;4995142;28;20042;-54
2021/08/22 13:05:55;;;;;;;4.72;3.38;;;;;;;;;;5013793;28;20041;-52
2021/08/22 13:08:21;;;;;;;4.10;2.72;;;;;;;;;;5013476;28;20053;-50
2021/08/22 13:10:48;;;;;;;4.70;2.83;;;;;;;;;;5014899;28;20396;-52
2021/08/22 13:13:15;;;;;;;4.32;2.90;;;;;;;;;;5014395;28;20124;-53
2021/08/22 13:15:42;;;;;;;4.43;3.35;;;;;;;;;;5013209;28;20100;-55
2021/08/22 13:18:09;;;;;;;4.00;3.03;;;;;;;;;;5007898;28;20041;-50
2021/08/22 13:20:36;;;;;;;4.03;3.10;;;;;;;;;;5013422;28;20388;-51
2021/08/22 13:23:03;;;;;;;4.03;2.67;;;;;;;;;;5013158;28;20034;-49
2021/08/22 13:25:31;;;;;;;5.32;3.10;;;;;;;;;;5010560;28;20045;-50
2021/08/22 13:27:58;;;;;;;5.20;3.38;;;;;;;;;;5011385;28;20049;-48
2021/08/22 13:30:25;;;;;;;4.63;3.38;;;;;;;;;;5013440;28;20128;-52
2021/08/22 13:32:53;;;;;;;4.10;3.28;;;;;;;;;;5016732;28;20044;-46
2021/08/22 13:35:21;;;;;;;6.10;3.45;;;;;;;;;;5027890;28;20572;-47
2021/08/22 13:37:47;;;;;;;4.13;3.28;;;;;;;;;;5012574;28;20129;-47
2021/08/22 13:40:14;;;;;;;6.80;3.65;;;;;;;;;;5011256;28;20132;-49
2021/08/22 13:42:41;;;;;;;5.22;3.85;;;;;;;;;;5008765;28;20042;-49
2021/08/22 13:45:08;;;;;;;6.07;3.97;;;;;;;;;;5012822;28;20644;-49
2021/08/22 13:47:35;;;;;;;5.13;3.53;;;;;;;;;;5005113;28;20038;-46
2021/08/22 13:50:01;;;;;;;4.80;3.30;;;;;;;;;;5004364;28;20052;-52
2021/08/22 13:52:28;;;;;;;6.55;3.72;;;;;;;;;;5013227;28;20052;-52
2021/08/22 13:54:55;;;;;;;7.55;4.38;;;;;;;;;;5013930;28;20129;-49
2021/08/22 13:57:21;;;;;;;7.03;4.43;;;;;;;;;;5006156;28;20042;-47
2021/08/22 13:59:48;;;;;;;6.25;3.75;;;;;;;;;;5022175;28;20463;-51
2021/08/22 14:02:15;;;;;;;5.55;3.80;;;;;;;;;;5028816;28;20063;-51
2021/08/22 14:04:42;;;;;;;5.88;3.72;;;;;;;;;;5021586;28;20034;-48
2021/08/22 14:07:08;;;;;;;5.95;3.65;;;;;;;;;;5013559;28;20104;-52
2021/08/22 14:09:35;;;;;;;5.05;2.70;;;;;;;;;;5002373;28;20046;-50
2021/08/22 14:12:02;;;;;;;4.03;2.78;;;;;;;;;;5026923;28;20043;-49
2021/08/22 14:14:29;;;;;;;4.43;2.75;;;;;;;;;;5025860;28;20050;-52
2021/08/22 14:16:56;;;;;;;5.28;2.83;;;;;;;;;;5016657;28;20042;-51
2021/08/22 14:19:22;;;;;;;7.82;3.60;;;;;;;;;;5020996;28;20483;-52
2021/08/22 14:21:49;;;;;;;6.28;4.15;;;;;;;;;;5015233;28;20037;-51
2021/08/22 14:24:16;;;;;;;6.65;4.05;;;;;;;;;;5017705;28;20120;-49
2021/08/22 14:26:43;;;;;;;7.53;5.18;;;;;;;;;;5019117;28;20152;-53
2021/08/22 14:29:09;;;;;;;6.28;4.57;;;;;;;;;;5017397;28;20136;-52
2021/08/22 14:31:37;;;;;;;7.18;4.85;;;;;;;;;;5016762;28;20144;-54
2021/08/22 14:34:07;;;;;;;6.75;5.10;;;;;;;;;;5028629;28;20406;-51
2021/08/22 14:36:37;;;;;;;7.88;5.20;;;;;;;;;;5018275;28;20132;-55
2021/08/22 14:39:05;;;;;;;6.50;4.85;;;;;;;;;;5012026;28;20137;-51
2021/08/22 14:41:32;;;;;;;7.78;4.90;;;;;;;;;;5022943;28;20057;-54
2021/08/22 14:43:59;;;;;;;7.40;5.25;;;;;;;;;;5016775;28;20042;-56
2021/08/22 14:46:26;;;;;;;7.13;4.93;;;;;;;;;;5007156;28;20633;-52
2021/08/22 14:48:53;;;;;;;7.22;4.65;;;;;;;;;;5010987;28;20050;-54
2021/08/22 14:51:21;;;;;;;6.43;5.10;;;;;;;;;;5012393;28;20049;-53
2021/08/22 14:53:48;;;;;;;6.95;4.68;;;;;;;;;;5012516;28;20057;-51